Résultats

Cross de la Nativit. Édition 2015.

1 Km
27/03/2015 à 08:00:00 - Aix en Provence (0)
88 arrivant(e)s.


 
Les autres classements de cet évènement




Place▲ Temps Dossard Nom Prenom Categ #Categ Sexe #Sexe ClubVit Moy Diplôme Partager
1 00:05:57 330 CHAVRIER INES BEF 1 F 1 5 30.00
2 00:05:58 398 GIRARD FLORIANE BEF 2 F 2 5 50.00
3 00:05:58 339 GUERMOUD MAYSSA BEF 3 F 3 5 30.00
4 00:06:11 452 N:Anonyme 452 P:Anonyme 452 BEF 4 F 4 5 70.00
5 00:06:12 437 MAROTTE COLOMBE BEF 5 F 5 5 60.00
6 00:06:15 383 TORMOS EMMA BEF 6 F 6 5 40.00
7 00:06:16 373 PAYAN LISA BEF 7 F 7 5 40.00
8 00:06:17 434 LEMAIRE LANNA BEF 8 F 8 5 60.00
9 00:06:19 425 CHIARIGLIONE MATHILDE BEF 9 F 9 5 60.00
10 00:06:20 448 TANKOSIC EVA BEF 10 F 10 5 60.00
11 00:06:22 423 CATAU CLARA BEF 11 F 11 5 60.00
12 00:06:23 351 SANNA AURELIE BEF 12 F 12 5 30.00
13 00:06:28 469 NICOLLE ILLONA BEF 13 F 13 5 70.00
14 00:06:30 281 GUICHARD JADE BEF 14 F 14 5 10.00
15 00:06:33 424 N:Anonyme 424 P:Anonyme 424 BEF 15 F 15 5 60.00
16 00:06:40 381 TARNAUD MARY-JANE BEF 16 F 16 5 40.00
17 00:06:42 323 WAGNON EMMA BEF 17 F 17 5 20.00
18 00:06:42 303 DECOMMER EUGENIE BEF 18 F 18 5 20.00
19 00:06:43 293 APLINCOURT MARGAUX BEF 19 F 19 5 20.00
20 00:06:44 400 GUERRE CLARISSE BEF 20 F 20 5 50.00
21 00:06:45 299 CHENEAU LAURE BEF 21 F 21 5 20.00
22 00:06:45 326 BERGMAN ETHEL BEF 22 F 22 5 30.00
23 00:06:46 290 TELLIER SWANN BEF 23 F 23 5 10.00
24 00:06:48 353 TOUTIN HELOISE BEF 24 F 24 5 30.00
25 00:06:49 296 BENISTANT VICTORIA BEF 25 F 25 5 20.00
26 00:06:51 377 ROUZAUD PAULINE BEF 26 F 26 5 40.00
27 00:06:53 312 MARIN YSALINE BEF 27 F 27 5 20.00
28 00:06:53 317 PALUMBO SERENA BEF 28 F 28 5 20.00
29 00:06:53 282 HERLAND DORIANE BEF 29 F 29 5 10.00
30 00:06:54 387 ANDRE-GALLIS LILA BEF 30 F 30 5 50.00
31 00:06:55 366 LAMBERT CLEANE BEF 31 F 31 5 40.00
32 00:06:56 467 MESLIERE LOU BEF 32 F 32 5 70.00
33 00:06:57 352 SAUVAN LEONIE BEF 33 F 33 5 30.00
34 00:06:58 362 GORGODIAN SUZANNE BEF 34 F 34 5 40.00
35 00:06:59 355 WERNER CLARA BEF 35 F 35 5 30.00
36 00:07:02 320 TRAX LEA BEF 36 F 36 5 20.00
37 00:07:02 295 BENISTANT INES BEF 37 F 37 5 20.00
38 00:07:05 294 BAL ANAIS BEF 38 F 38 5 20.00
39 00:07:05 270 BENCHENAFI ANISSA BEF 39 F 39 5 10.00
40 00:07:06 346 MOCKERS CLARA BEF 40 F 40 5 30.00
41 00:07:07 384 TOUTIN HANNAH BEF 41 F 41 5 40.00
42 00:07:08 406 NASSI AMELIE BEF 42 F 42 5 50.00
43 00:07:08 334 DRIEUX MADISON BEF 43 F 43 5 30.00
44 00:07:12 466 LE-TREQUESSER LOU BEF 44 F 44 5 70.00
45 00:07:12 314 MEYNIEUX BLANCHE BEF 45 F 45 5 20.00
46 00:07:14 372 MORELON LAURE BEF 46 F 46 5 40.00
47 00:07:15 348 PIOT-D'HALLUIN VICTORIA BEF 47 F 47 5 30.00
48 00:07:15 340 GUERRE MARINE BEF 48 F 48 5 30.00
49 00:07:18 431 HENNO HORTENSE BEF 49 F 49 5 60.00
50 00:07:21 284 MARTIN AMBRE BEF 50 F 50 5 10.00
51 00:07:22 399 GOMEZ ANNA BEF 51 F 51 5 50.00
52 00:07:24 419 AVEZA LUCILLE BEF 52 F 52 5 60.00
53 00:07:25 335 DURAND-DAGICOUR ORIANNE BEF 53 F 53 5 30.00
54 00:07:25 375 PY ALICIA BEF 54 F 54 5 40.00
55 00:07:26 337 FERRIER MARIE BEF 55 F 55 5 30.00
56 00:07:26 318 SALIS SOLENE BEF 56 F 56 5 20.00
57 00:07:27 332 DAVID ANNE-LYSE BEF 57 F 57 5 30.00
58 00:07:30 388 ARNAUD LAURIE BEF 58 F 58 5 50.00
59 00:07:30 405 MIMUN MAILYS BEF 59 F 59 5 50.00
60 00:07:30 300 DARMON SOLENE BEF 60 F 60 5 20.00
61 00:07:31 446 RODRIGUES JULIETTE BEF 61 F 61 5 60.00
62 00:07:33 404 MILON JULIETTE BEF 62 F 62 5 50.00
63 00:07:37 440 MICHAUD LOLA BEF 63 F 63 5 60.00
64 00:07:38 396 GENSOLLEN VICTOIRE BEF 64 F 64 5 50.00
65 00:07:39 309 JACOULET ANOUK BEF 65 F 65 5 20.00
66 00:07:41 307 GIRARDEAU EVE BEF 66 F 66 5 20.00
67 00:07:42 433 LE-MOAL AMANDINE BEF 67 F 67 5 60.00
68 00:07:42 376 RABATTU JUSTINE MIF 1 F 68 5 40.00
69 00:07:45 476 THAON PAULINE BEF 68 F 69 5 70.00
70 00:07:52 329 BOURDAREL ERINE BEF 69 F 70 5 30.00
71 00:07:55 407 NOEL-WEIL SARAH BEF 70 F 71 5 50.00
72 00:08:00 378 SANTIAGO CHLOE BEF 71 F 72 5 40.00
73 00:08:00 403 MARIDAT JEANNE BEF 72 F 73 5 50.00
74 00:08:03 298 BRIERE INES BEF 73 F 74 5 20.00
75 00:08:15 427 DAUMAS CAROLINE BEF 74 F 75 5 60.00
76 00:08:17 394 DEVALLOIS ELISA BEF 75 F 76 5 50.00
77 00:08:21 356 ANTARAMIAN VICTOIRE BEF 76 F 77 5 40.00
78 00:08:23 421 BOURCIER FLORIE BEF 77 F 78 5 60.00
79 00:08:26 441 MONMAGNON VICTORIA BEF 78 F 79 5 60.00
80 00:08:27 445 RABADEUX ELENA BEF 79 F 80 5 60.00
81 00:08:31 461 FAURE MAGALI BEF 80 F 81 5 70.00
82 00:08:35 287 RAPALLINI JADE BEF 81 F 82 5 10.00
83 00:08:36 279 GOTMAN SALOME POF 1 F 83 5 10.00
84 00:08:39 357 AYMARD LIZ BEF 82 F 84 5 40.00
85 00:08:51 416 VIVES-ROTGER ALIXIA BEF 83 F 85 5 50.00
86 00:08:51 392 CORTESE JULIE BEF 84 F 86 5 50.00
87 00:10:01 278 GHILLIAZA COLINE BEF 85 F 87 5 10.00
88 00:10:28 444 NGUYEN SUZANNE BEF 86 F 88 5 60.00